Terminal Aerodrome Forecast
Issued by NWS

Home | Current Version | Previous Version | Text Only | Print | Product List | Glossary On
Versions: 1 2 3 4 5 6 7 8 9 10 11 12 13 14 15 16 17 18 19 20 21 22 23 24 25 26 27 28 29 30 31 32 33 34 35 36 37 38 39 40 41 42 43 44 45 46 47 48 49 50
970
FTUS46 KEKA 191340 AAA
TAFACV
TAF AMD
KACV 191340Z 1914/2012 12007KT P6SM SCT025 OVC035
     FM191600 15012KT P6SM VCSH SCT015 OVC040
     FM191900 15013G20KT 6SM -RA BR OVC025 WS020/19030KT
     FM192100 18012KT 1 1/2SM RA BR OVC015 WS020/22040KT
     FM200100 22009KT 6SM -SHRA BR BKN025
     FM200600 15009KT P6SM -SHRA VCTS BKN035CB=

USA.gov is the U.S. government's official web portal to all federal, state and local government web resources and services.